Time;durP1;ratioP1;P1;durP2;ratioP2;P2;SDS_P1;SDS_P2;PMS_P1;PMS_P2;Temp;Humidity;BMP_temperature;BMP_pressure;BME280_temperature;BME280_humidity;BME280_pressure;Samples;Min_cycle;Max_cycle;Signal;HPM_P1;HPM_P2
2021/04/20 00:00:51;;;;;;;;;;;;;;;7.48;81.46;94010.27;1763353;81;20274;-53
2021/04/20 00:03:19;;;;;;;;;;;;;;;7.53;81.73;94008.33;1763446;81;20214;-55
2021/04/20 00:05:47;;;;;;;;;;;;;;;7.60;81.35;94001.99;1767980;80;20224;-53
2021/04/20 00:08:16;;;;;;;;;;;;;;;7.59;81.03;94004.58;1773048;81;21270;-53
2021/04/20 00:10:44;;;;;;;;;;;;;;;7.58;80.98;94004.41;1773236;81;20311;-54
2021/04/20 00:13:12;;;;;;;;;;;;;;;7.59;80.82;94002.42;1773443;81;20240;-54
2021/04/20 00:15:39;;;;;;;;;;;;;;;7.61;80.87;94004.89;1773299;81;20228;-53
2021/04/20 00:18:07;;;;;;;;;;;;;;;7.63;80.76;94002.47;1773340;81;20283;-53
2021/04/20 00:20:35;;;;;;;;;;;;;;;7.62;80.73;94000.94;1773425;81;21372;-53
2021/04/20 00:23:07;;;;;;;;;;;;;;;7.62;80.73;93992.73;1773347;81;20232;-53
2021/04/20 00:25:35;;;;;;;;;;;;;;;7.61;80.68;93993.16;1773514;80;20236;-54
2021/04/20 00:28:04;;;;;;;;;;;;;;;7.60;80.62;93991.05;1773266;81;20315;-54
2021/04/20 00:30:31;;;;;;;;;;;;;;;7.58;80.42;93985.26;1773387;81;20228;-53
2021/04/20 00:32:59;;;;;;;;;;;;;;;7.58;80.35;93985.26;1773472;81;21168;-53
2021/04/20 00:35:27;;;;;;;;;;;;;;;7.55;80.12;93988.86;1773266;81;20235;-52
2021/04/20 00:37:54;;;;;;;;;;;;;;;7.56;80.11;93984.91;1765020;80;20528;-53
2021/04/20 00:40:21;;;;;;;;;;;;;;;7.59;80.33;93991.48;1761393;81;20241;-53
2021/04/20 00:42:53;;;;;;;;;;;;;;;7.64;80.22;93980.73;1761422;81;20229;-53
2021/04/20 00:45:26;;;;;;;;;;;;;;;7.65;79.92;93976.00;1761583;81;21464;-53
2021/04/20 00:47:53;;;;;;;;;;;;;;;7.62;79.78;93981.00;1761300;81;20261;-54
2021/04/20 00:50:24;;;;;;;;;;;;;;;7.56;79.66;93979.44;1761459;81;20241;-52
2021/04/20 00:52:52;;;;;;;;;;;;;;;7.51;79.81;93985.49;1735912;81;20228;-52
2021/04/20 00:55:20;;;;;;;;;;;;;;;7.48;80.10;93977.44;1761615;81;20295;-53
2021/04/20 00:57:48;;;;;;;;;;;;;;;7.47;79.89;93975.88;1761590;81;21213;-53
2021/04/20 01:00:22;;;;;;;;;;;;;;;7.43;79.87;93978.76;1761581;81;20232;-53
2021/04/20 01:02:49;;;;;;;;;;;;;;;7.47;79.68;93977.24;1761518;81;20240;-53
2021/04/20 01:05:20;;;;;;;;;;;;;;;7.44;79.57;93977.55;1757688;81;20270;-53
2021/04/20 01:07:48;;;;;;;;;;;;;;;7.39;79.32;93971.29;1746045;81;20233;-51
2021/04/20 01:10:15;;;;;;;;;;;;;;;7.34;79.49;93974.58;1761605;81;21275;-53
2021/04/20 01:12:43;;;;;;;;;;;;;;;7.35;79.54;93973.36;1761583;81;20253;-52
2021/04/20 01:15:12;;;;;;;;;;;;;;;7.37;79.47;93970.95;1761589;81;20272;-51
2021/04/20 01:17:40;;;;;;;;;;;;;;;7.34;79.43;93966.37;1761476;81;20291;-53
2021/04/20 01:20:10;;;;;;;;;;;;;;;7.34;79.42;93964.25;1761663;81;20297;-52
2021/04/20 01:22:40;;;;;;;;;;;;;;;7.27;79.48;93962.53;1761513;81;21148;-52
2021/04/20 01:25:09;;;;;;;;;;;;;;;7.24;79.78;93963.42;1761734;81;20269;-54
2021/04/20 01:27:36;;;;;;;;;;;;;;;7.26;79.76;93959.63;1761543;81;20516;-53
2021/04/20 01:30:06;;;;;;;;;;;;;;;7.30;79.95;93961.63;1747860;81;20221;-53
2021/04/20 01:32:36;;;;;;;;;;;;;;;7.35;80.11;93961.05;1746671;81;20254;-51
2021/04/20 01:35:04;;;;;;;;;;;;;;;7.43;79.88;93963.71;1746737;82;21294;-53
2021/04/20 01:37:31;;;;;;;;;;;;;;;7.46;79.67;93973.77;1758119;80;20246;-53
2021/04/20 01:40:00;;;;;;;;;;;;;;;7.50;80.07;93960.70;1776880;79;20234;-54
2021/04/20 01:42:28;;;;;;;;;;;;;;;7.58;80.05;93971.57;1776744;80;20214;-53
2021/04/20 01:44:56;;;;;;;;;;;;;;;7.58;79.91;93964.73;1776915;80;20226;-53
2021/04/20 01:47:24;;;;;;;;;;;;;;;7.54;79.84;93969.55;1776830;80;21375;-54
2021/04/20 01:49:52;;;;;;;;;;;;;;;7.50;80.10;93967.55;1776687;80;20230;-54
2021/04/20 01:52:19;;;;;;;;;;;;;;;7.52;80.07;93968.48;1759365;80;20226;-53
2021/04/20 01:54:46;;;;;;;;;;;;;;;7.54;80.00;93976.39;1776995;80;20497;-55
2021/04/20 01:57:14;;;;;;;;;;;;;;;7.61;80.34;93965.80;1771472;81;20214;-53
2021/04/20 01:59:42;;;;;;;;;;;;;;;7.70;80.16;93972.70;1765491;80;21389;-55
2021/04/20 02:02:10;;;;;;;;;;;;;;;7.73;79.78;93971.81;1742164;81;20246;-52
2021/04/20 02:04:37;;;;;;;;;;;;;;;7.70;79.65;93973.45;1742445;82;20241;-53
2021/04/20 02:07:05;;;;;;;;;;;;;;;7.66;79.79;93968.72;1773170;81;20231;-53
2021/04/20 02:09:33;;;;;;;;;;;;;;;7.66;79.73;93965.98;1773425;80;20240;-54
2021/04/20 02:12:01;;;;;;;;;;;;;;;7.69;79.58;93967.08;1773319;81;21174;-53
2021/04/20 02:14:29;;;;;;;;;;;;;;;7.69;79.54;93967.82;1773545;81;20239;-54
2021/04/20 02:16:56;;;;;;;;;;;;;;;7.75;79.65;93970.16;1773397;81;20240;-54
2021/04/20 02:19:24;;;;;;;;;;;;;;;7.79;79.46;93966.68;1743673;81;20249;-53
2021/04/20 02:21:53;;;;;;;;;;;;;;;7.80;79.63;93962.73;1773445;81;20260;-53
2021/04/20 02:24:20;;;;;;;;;;;;;;;7.88;79.50;93963.98;1773503;81;21216;-53
2021/04/20 02:26:48;;;;;;;;;;;;;;;7.94;79.34;93958.69;1773541;81;20327;-52
2021/04/20 02:29:16;;;;;;;;;;;;;;;7.93;78.82;93964.78;1773427;81;20236;-53
2021/04/20 02:31:44;;;;;;;;;;;;;;;7.88;78.85;93955.77;1773389;81;20255;-52
2021/04/20 02:34:12;;;;;;;;;;;;;;;7.87;78.99;93956.23;1773630;81;20260;-52
2021/04/20 02:36:41;;;;;;;;;;;;;;;7.85;78.88;93955.91;1773479;81;22087;-55
2021/04/20 02:39:09;;;;;;;;;;;;;;;7.83;78.95;93959.09;1773077;80;20294;-56
2021/04/20 02:41:40;;;;;;;;;;;;;;;7.78;78.91;93963.78;1773466;81;20231;-54
2021/04/20 02:44:09;;;;;;;;;;;;;;;7.69;78.81;93963.72;1773514;81;20261;-57
2021/04/20 02:46:41;;;;;;;;;;;;;;;7.65;79.35;93965.05;1773600;81;20252;-58
2021/04/20 02:49:10;;;;;;;;;;;;;;;7.72;79.05;93963.44;1773259;81;21207;-56
2021/04/20 02:51:38;;;;;;;;;;;;;;;7.69;78.82;93963.72;1773274;81;20218;-54
2021/04/20 02:54:06;;;;;;;;;;;;;;;7.64;79.02;93961.56;1773606;81;20218;-58
2021/04/20 02:56:35;;;;;;;;;;;;;;;7.63;79.19;93961.41;1773420;81;20279;-58
2021/04/20 02:59:06;;;;;;;;;;;;;;;7.63;79.32;93962.78;1773416;81;20222;-59
2021/04/20 03:01:36;;;;;;;;;;;;;;;7.61;79.39;93959.73;1773557;81;21366;-58
2021/04/20 03:04:04;;;;;;;;;;;;;;;7.57;79.52;93963.20;1773328;81;20213;-57
2021/04/20 03:06:32;;;;;;;;;;;;;;;7.51;79.62;93966.95;1750021;81;20220;-59
2021/04/20 03:09:00;;;;;;;;;;;;;;;7.50;79.74;93959.96;1794444;80;20189;-57
2021/04/20 03:11:29;;;;;;;;;;;;;;;7.54;79.85;93958.59;1772319;79;20214;-56
2021/04/20 03:13:59;;;;;;;;;;;;;;;7.55;79.77;93956.02;1772407;79;21214;-63
2021/04/20 03:16:28;;;;;;;;;;;;;;;7.55;79.85;93953.28;1797636;80;20503;-63
2021/04/20 03:18:58;;;;;;;;;;;;;;;7.56;80.12;93963.02;1798421;80;20230;-60
2021/04/20 03:21:26;;;;;;;;;;;;;;;7.66;80.27;93960.51;1798561;80;20486;-63
2021/04/20 03:23:55;;;;;;;;;;;;;;;7.73;79.65;93957.50;1798328;80;20214;-62
2021/04/20 03:26:27;;;;;;;;;;;;;;;7.72;79.47;93960.08;1798517;80;21258;-62
2021/04/20 03:29:01;;;;;;;;;;;;;;;7.79;79.55;93961.20;1798163;80;20289;-62
2021/04/20 03:31:28;;;;;;;;;;;;;;;7.82;78.89;93964.41;1798434;80;20218;-59
2021/04/20 03:34:15;;;;;;;;;;;;;;;7.74;78.75;93966.48;1798374;80;20213;-57
2021/04/20 03:36:54;;;;;;;;;;;;;;;7.68;78.90;93967.67;1798340;80;20269;-55
2021/04/20 03:39:22;;;;;;;;;;;;;;;7.63;78.97;93966.88;1791813;80;21103;-51
2021/04/20 03:42:11;;;;;;;;;;;;;;;7.61;79.30;93973.41;1792552;80;20243;-53
2021/04/20 03:44:46;;;;;;;;;;;;;;;7.65;79.23;93972.67;1792572;80;20214;-54
2021/04/20 03:47:33;;;;;;;;;;;;;;;7.70;78.90;93972.70;1792597;80;20242;-56
2021/04/20 03:50:01;;;;;;;;;;;;;;;7.69;78.80;93980.14;1792264;80;20277;-56
2021/04/20 03:52:32;;;;;;;;;;;;;;;7.77;78.90;93973.21;1792448;80;21203;-56
2021/04/20 03:54:59;;;;;;;;;;;;;;;7.82;78.76;93976.73;1762711;80;20238;-55
2021/04/20 03:57:28;;;;;;;;;;;;;;;7.92;78.80;93984.39;1795160;80;20214;-55
2021/04/20 03:59:57;;;;;;;;;;;;;;;8.01;78.59;93976.20;1766795;80;20222;-55
2021/04/20 04:02:24;;;;;;;;;;;;;;;8.07;78.20;93982.65;1766557;80;20247;-55
2021/04/20 04:04:52;;;;;;;;;;;;;;;8.07;77.86;93980.66;1792898;80;21369;-55
2021/04/20 04:07:20;;;;;;;;;;;;;;;8.05;77.88;93980.34;1767746;81;20223;-54
2021/04/20 04:09:48;;;;;;;;;;;;;;;8.03;77.66;93982.77;1767848;81;20210;-55
2021/04/20 04:12:16;;;;;;;;;;;;;;;8.01;77.60;93978.35;1767869;80;20215;-55
2021/04/20 04:14:43;;;;;;;;;;;;;;;8.03;77.89;93984.77;1760999;81;20223;-56
2021/04/20 04:17:13;;;;;;;;;;;;;;;8.13;77.99;93969.89;1767882;81;21270;-56
2021/04/20 04:19:46;;;;;;;;;;;;;;;8.29;77.44;93975.91;1767839;81;20262;-56
2021/04/20 04:22:16;;;;;;;;;;;;;;;8.30;76.77;93978.83;1768060;81;20222;-55
2021/04/20 04:24:49;;;;;;;;;;;;;;;8.24;76.97;93982.61;1768019;81;20222;-55
2021/04/20 04:27:18;;;;;;;;;;;;;;;8.26;76.78;93979.55;1768361;81;20235;-55
2021/04/20 04:29:47;;;;;;;;;;;;;;;8.22;76.60;93987.16;1768031;81;21194;-55
2021/04/20 04:32:18;;;;;;;;;;;;;;;8.16;76.68;93982.09;1768110;81;20219;-55
2021/04/20 04:34:49;;;;;;;;;;;;;;;8.18;76.77;93985.16;1768264;81;20214;-56
2021/04/20 04:37:17;;;;;;;;;;;;;;;8.17;76.86;93981.46;1768031;81;20226;-54
2021/04/20 04:39:45;;;;;;;;;;;;;;;8.12;77.00;93981.47;1772442;79;20223;-57
2021/04/20 04:42:12;;;;;;;;;;;;;;;8.10;77.10;93982.49;1773926;81;21360;-55
2021/04/20 04:44:40;;;;;;;;;;;;;;;8.07;77.06;93981.28;1773776;81;20221;-55
2021/04/20 04:47:08;;;;;;;;;;;;;;;8.05;77.11;93983.09;1773979;81;20242;-56
2021/04/20 04:49:36;;;;;;;;;;;;;;;8.09;77.21;93988.44;1768057;81;20225;-55
2021/04/20 04:52:04;;;;;;;;;;;;;;;8.15;77.06;93986.04;1758745;81;20233;-55
2021/04/20 04:54:32;;;;;;;;;;;;;;;8.25;76.69;93990.98;1767011;80;21181;-56
2021/04/20 04:57:01;;;;;;;;;;;;;;;8.26;76.58;93989.77;1766964;81;20238;-56
2021/04/20 04:59:28;;;;;;;;;;;;;;;8.31;76.54;93995.43;1767008;81;20222;-55
2021/04/20 05:01:56;;;;;;;;;;;;;;;8.40;75.86;93987.23;1767038;80;20246;-55
2021/04/20 05:04:25;;;;;;;;;;;;;;;8.44;75.09;93987.84;1766930;81;20215;-57
2021/04/20 05:06:54;;;;;;;;;;;;;;;8.39;74.59;93987.08;1766997;80;20222;-55
2021/04/20 05:09:23;;;;;;;;;;;;;;;8.35;74.77;93991.94;1768456;81;20297;-56
2021/04/20 05:11:52;;;;;;;;;;;;;;;8.35;74.67;93989.79;1773780;80;20277;-55
2021/04/20 05:14:21;;;;;;;;;;;;;;;8.34;74.64;94003.34;1773813;81;20222;-56
2021/04/20 05:16:51;;;;;;;;;;;;;;;8.30;74.50;93995.87;1773825;81;20257;-57
2021/04/20 05:19:29;;;;;;;;;;;;;;;8.32;74.71;93988.73;1773677;81;21139;-58
2021/04/20 05:21:57;;;;;;;;;;;;;;;8.40;74.51;93987.23;1770769;80;20217;-57
2021/04/20 05:24:25;;;;;;;;;;;;;;;8.40;74.41;93989.22;1773604;81;20242;-56
2021/04/20 05:26:53;;;;;;;;;;;;;;;8.35;74.29;93997.42;1766125;80;20275;-57
2021/04/20 05:29:20;;;;;;;;;;;;;;;8.31;74.62;94000.91;1754375;80;20280;-55
2021/04/20 05:31:49;;;;;;;;;;;;;;;8.32;74.76;94003.80;1775135;80;21322;-58
2021/04/20 05:34:21;;;;;;;;;;;;;;;8.37;74.63;93995.58;1774825;80;20553;-59
2021/04/20 05:36:49;;;;;;;;;;;;;;;8.38;74.30;93995.73;1758860;80;20523;-56
2021/04/20 05:39:17;;;;;;;;;;;;;;;8.36;74.10;93994.05;1771627;79;20220;-55
2021/04/20 05:41:45;;;;;;;;;;;;;;;8.40;74.08;93994.08;1772228;81;20240;-55
2021/04/20 05:44:14;;;;;;;;;;;;;;;8.45;74.16;93994.11;1773033;80;21380;-56
2021/04/20 05:46:44;;;;;;;;;;;;;;;8.46;74.19;93997.75;1773283;80;20655;-57
2021/04/20 05:49:11;;;;;;;;;;;;;;;8.56;74.15;93993.84;1772590;81;20495;-56
2021/04/20 05:51:40;;;;;;;;;;;;;;;8.65;73.79;93989.73;1771735;80;20422;-56
2021/04/20 05:54:09;;;;;;;;;;;;;;;8.66;73.10;93993.26;1770260;80;20503;-55
2021/04/20 05:56:37;;;;;;;;;;;;;;;8.57;72.96;93994.58;1771253;80;21212;-59
2021/04/20 05:59:06;;;;;;;;;;;;;;;8.52;73.02;93997.33;1768481;80;20274;-59
2021/04/20 06:01:35;;;;;;;;;;;;;;;8.55;73.56;93998.39;1771038;79;20155;-57
2021/04/20 06:04:06;;;;;;;;;;;;;;;8.69;73.72;94003.31;1789571;79;20299;-58
2021/04/20 06:06:35;;;;;;;;;;;;;;;8.84;73.67;93998.79;1748359;80;20248;-58
2021/04/20 06:09:03;;;;;;;;;;;;;;;8.89;73.15;93996.97;1757250;80;21398;-59
2021/04/20 06:11:35;;;;;;;;;;;;;;;8.99;72.42;93995.00;1760489;80;20256;-58
2021/04/20 06:14:05;;;;;;;;;;;;;;;9.00;72.17;93999.27;1761792;81;20229;-59
2021/04/20 06:16:33;;;;;;;;;;;;;;;8.99;72.20;93997.75;1760090;80;20301;-58
2021/04/20 06:19:01;;;;;;;;;;;;;;;8.99;71.61;93997.16;1762109;80;20264;-59
2021/04/20 06:21:29;;;;;;;;;;;;;;;9.01;71.67;93994.71;1766170;81;21201;-59
2021/04/20 06:23:59;;;;;;;;;;;;;;;9.04;71.73;93992.42;1756263;80;20239;-58
2021/04/20 06:26:27;;;;;;;;;;;;;;;9.12;72.22;94000.53;1761950;81;20234;-61
2021/04/20 06:28:55;;;;;;;;;;;;;;;9.25;72.07;93992.91;1760732;81;20673;-59
2021/04/20 06:31:24;;;;;;;;;;;;;;;9.36;71.34;93993.23;1761783;81;20279;-58
2021/04/20 06:33:51;;;;;;;;;;;;;;;9.49;70.80;93991.69;1758754;81;21121;-57
2021/04/20 06:36:20;;;;;;;;;;;;;;;9.60;69.99;93994.75;1761446;80;20183;-58
2021/04/20 06:38:48;;;;;;;;;;;;;;;9.62;69.59;93997.80;1761691;79;20328;-60
2021/04/20 06:41:35;;;;;;;;;;;;;;;9.69;68.65;93990.61;1761308;80;20269;-56
2021/04/20 06:44:07;;;;;;;;;;;;;;;9.71;68.18;93984.83;1761368;80;20252;-56
2021/04/20 06:46:50;;;;;;;;;;;;;;;9.76;67.68;93986.20;1760948;80;21159;-56
2021/04/20 06:49:21;;;;;;;;;;;;;;;9.83;67.01;93983.88;1779643;79;20301;-61
2021/04/20 06:51:50;;;;;;;;;;;;;;;9.95;65.72;93983.57;1746642;80;20269;-62
2021/04/20 06:54:44;;;;;;;;;;;;;;;10.04;65.29;93980.22;1771418;79;20246;-59
2021/04/20 06:57:25;;;;;;;;;;;;;;;10.21;65.28;93985.52;1784641;79;20862;-57
2021/04/20 06:59:56;;;;;;;;;;;;;;;10.45;64.89;93989.69;1753954;80;21207;-60
2021/04/20 07:02:48;;;;;;;;;;;;;;;10.66;64.36;93985.93;1757767;80;20281;-61
2021/04/20 07:05:32;;;;;;;;;;;;;;;10.82;63.84;93995.33;1786522;79;20853;-59
2021/04/20 07:08:18;;;;;;;;;;;;;;;10.94;63.41;93994.36;1759746;80;20365;-59
2021/04/20 07:10:46;;;;;;;;;;;;;;;11.00;62.30;93986.97;1792978;79;20795;-64
2021/04/20 07:13:17;;;;;;;;;;;;;;;11.19;62.23;93990.39;1754537;80;21189;-56
2021/04/20 07:15:47;;;;;;;;;;;;;;;11.37;62.59;93988.25;1755740;80;21100;-61
2021/04/20 07:18:39;;;;;;;;;;;;;;;11.58;61.71;93984.47;1773231;79;20493;-59
2021/04/20 07:21:22;;;;;;;;;;;;;;;11.80;61.85;93982.73;1750923;80;37721;-56
2021/04/20 07:24:15;;;;;;;;;;;;;;;11.87;61.85;93986.52;1745816;81;20292;-62
2021/04/20 07:27:15;;;;;;;;;;;;;;;12.02;62.46;93982.53;1758345;80;21449;-61
2021/04/20 07:30:08;;;;;;;;;;;;;;;12.23;62.14;93984.78;1730616;80;21069;-58
2021/04/20 07:32:39;;;;;;;;;;;;;;;12.25;60.85;93985.81;1759845;80;20303;-62
2021/04/20 07:35:22;;;;;;;;;;;;;;;12.33;61.00;93987.57;1759352;81;20399;-61
2021/04/20 07:38:02;;;;;;;;;;;;;;;12.42;59.27;93984.73;1759216;81;20287;-60
2021/04/20 07:40:34;;;;;;;;;;;;;;;12.44;59.48;93988.52;1743046;81;21220;-59
2021/04/20 07:43:17;;;;;;;;;;;;;;;12.45;57.77;93984.52;1752344;81;20543;-59
2021/04/20 07:45:56;;;;;;;;;;;;;;;12.37;57.50;93979.86;1776555;79;20293;-59
2021/04/20 07:48:43;;;;;;;;;;;;;;;12.42;58.60;93979.95;1752866;80;20296;-59
2021/04/20 07:51:30;;;;;;;;;;;;;;;12.46;59.07;93979.77;1747913;81;20700;-60
2021/04/20 07:54:17;;;;;;;;;;;;;;;12.65;58.65;93981.82;1873982;75;20234;-64
2021/04/20 07:56:49;;;;;;;;;;;;;;;12.65;58.83;93971.55;1833195;76;20296;-59
2021/04/20 07:59:18;;;;;;;;;;;;;;;12.70;57.12;93977.03;1822867;76;22139;-58
2021/04/20 08:01:54;;;;;;;;;;;;;;;12.75;57.53;93973.58;1784285;78;20669;-58
2021/04/20 08:04:51;;;;;;;;;;;;;;;12.91;57.68;93969.67;1785207;78;20263;-57
2021/04/20 08:07:38;;;;;;;;;;;;;;;13.12;56.68;93967.74;1785579;78;20257;-58
2021/04/20 08:10:08;;;;;;;;;;;;;;;13.27;55.60;93962.92;1694302;83;20321;-62
2021/04/20 08:12:39;;;;;;;;;;;;;;;13.46;55.87;93960.77;1741474;80;21475;-65
2021/04/20 08:15:22;;;;;;;;;;;;;;;13.56;53.46;93958.02;1702869;80;20268;-59
2021/04/20 08:18:00;;;;;;;;;;;;;;;13.41;53.13;93951.05;1764407;80;20243;-64
2021/04/20 08:20:32;;;;;;;;;;;;;;;13.40;54.81;93950.28;1763781;80;20648;-60
2021/04/20 08:23:00;;;;;;;;;;;;;;;13.47;54.19;93954.63;1769715;80;20358;-61
2021/04/20 08:25:31;;;;;;;;;;;;;;;13.48;54.64;93949.24;1766694;80;21369;-58
2021/04/20 08:28:17;;;;;;;;;;;;;;;13.46;53.01;93946.95;1771695;80;20280;-59
2021/04/20 08:30:51;;;;;;;;;;;;;;;13.45;52.69;93947.45;1776716;80;20246;-59
2021/04/20 08:33:23;;;;;;;;;;;;;;;13.61;52.67;93946.25;1777641;78;20339;-62
2021/04/20 08:35:52;;;;;;;;;;;;;;;13.74;52.21;93938.37;1742001;81;20252;-60
2021/04/20 08:38:29;;;;;;;;;;;;;;;13.80;51.86;93937.05;1774308;80;22762;-63
2021/04/20 08:41:14;;;;;;;;;;;;;;;13.79;52.29;93936.91;1751042;80;20251;-58
2021/04/20 08:44:00;;;;;;;;;;;;;;;13.87;53.11;93936.00;1781901;78;20298;-58
2021/04/20 08:46:33;;;;;;;;;;;;;;;13.96;52.42;93922.00;1785738;78;20283;-61
2021/04/20 08:49:30;;;;;;;;;;;;;;;14.17;52.49;93924.11;1764594;80;20297;-59
2021/04/20 08:52:05;;;;;;;;;;;;;;;14.37;52.11;93928.92;1756006;80;21147;-58
2021/04/20 08:54:53;;;;;;;;;;;;;;;14.65;50.33;93923.73;1777170;79;20314;-58
2021/04/20 08:57:27;;;;;;;;;;;;;;;14.72;50.62;93926.06;1779040;80;20257;-58
2021/04/20 09:00:16;;;;;;;;;;;;;;;14.68;51.23;93937.23;1779013;80;20244;-59
2021/04/20 09:03:05;;;;;;;;;;;;;;;14.43;49.87;93942.81;1779968;79;20442;-59
2021/04/20 09:05:49;;;;;;;;;;;;;;;13.59;51.15;93956.30;1764059;80;21280;-60
2021/04/20 09:08:23;;;;;;;;;;;;;;;12.49;54.97;93967.14;1782813;79;20298;-59
2021/04/20 09:11:04;;;;;;;;;;;;;;;11.69;57.31;93972.27;1770215;78;21080;-63
2021/04/20 09:13:37;;;;;;;;;;;;;;;11.14;58.01;93971.14;1783272;78;20286;-59
2021/04/20 09:16:08;;;;;;;;;;;;;;;10.73;58.83;93965.13;1800051;78;20274;-60
2021/04/20 09:18:41;;;;;;;;;;;;;;;10.52;60.60;93970.88;1783127;78;21690;-64
2021/04/20 09:21:30;;;;;;;;;;;;;;;10.45;61.83;93976.72;1790013;78;20537;-61
2021/04/20 09:24:01;;;;;;;;;;;;;;;10.42;62.71;93982.38;1783969;78;20668;-57
2021/04/20 09:26:34;;;;;;;;;;;;;;;10.37;64.13;93980.27;1781366;78;20495;-58
2021/04/20 09:29:37;;;;;;;;;;;;;;;10.29;64.80;93979.05;1784859;78;20293;-57
2021/04/20 09:32:06;;;;;;;;;;;;;;;10.22;64.25;93984.89;1784642;78;21264;-57
2021/04/20 09:34:35;;;;;;;;;;;;;;;10.06;64.43;93989.36;1792290;78;20327;-61
2021/04/20 09:37:03;;;;;;;;;;;;;;;10.03;64.62;93992.44;1794328;78;20279;-58
2021/04/20 09:39:34;;;;;;;;;;;;;;;9.99;63.66;94002.03;1805236;78;20279;-60
2021/04/20 09:42:04;;;;;;;;;;;;;;;9.89;63.72;94000.50;1788409;78;20224;-60
2021/04/20 09:44:52;;;;;;;;;;;;;;;9.82;63.68;93998.83;1799340;78;21136;-62
2021/04/20 09:47:39;;;;;;;;;;;;;;;9.69;63.69;94005.72;1802186;78;20220;-60
2021/04/20 09:50:15;;;;;;;;;;;;;;;9.49;63.35;94002.67;1723757;78;20228;-58
2021/04/20 09:53:05;;;;;;;;;;;;;;;9.26;64.56;93997.80;1759479;79;20263;-57
2021/04/20 09:55:35;;;;;;;;;;;;;;;9.11;65.31;94000.97;1776258;78;20303;-60
2021/04/20 09:58:03;;;;;;;;;;;;;;;9.07;66.64;94005.23;1741761;81;21161;-59
2021/04/20 10:00:32;;;;;;;;;;;;;;;9.15;66.83;94009.22;1738615;81;20288;-60
2021/04/20 10:03:07;;;;;;;;;;;;;;;9.28;66.32;94004.96;1778550;79;20298;-58
2021/04/20 10:05:58;;;;;;;;;;;;;;;9.35;66.10;94003.28;1744497;80;20278;-58
2021/04/20 10:08:45;;;;;;;;;;;;;;;9.45;65.40;94002.07;1752723;80;20244;-61
2021/04/20 10:11:34;;;;;;;;;;;;;;;9.61;65.28;94005.89;1766968;79;21213;-58
2021/04/20 10:14:28;;;;;;;;;;;;;;;9.78;65.60;93999.60;1744382;80;21017;-61
2021/04/20 10:17:14;;;;;;;;;;;;;;;9.98;65.88;94000.50;1767244;80;20276;-59
2021/04/20 10:20:04;;;;;;;;;;;;;;;10.08;64.63;94002.02;1735648;80;20280;-58
2021/04/20 10:22:51;;;;;;;;;;;;;;;10.17;64.40;93998.64;1771330;80;20274;-60
2021/04/20 10:25:37;;;;;;;;;;;;;;;10.46;63.54;93984.34;1738510;80;21371;-59
2021/04/20 10:28:29;;;;;;;;;;;;;;;10.94;63.69;93996.33;1748662;80;20254;-58
2021/04/20 10:30:59;;;;;;;;;;;;;;;11.41;61.91;93994.97;1747148;80;20307;-59
2021/04/20 10:33:27;;;;;;;;;;;;;;;12.09;59.91;93994.55;1768890;80;20513;-60
2021/04/20 10:35:59;;;;;;;;;;;;;;;12.79;60.36;93992.86;1770864;80;20280;-58
2021/04/20 10:38:33;;;;;;;;;;;;;;;13.73;60.20;93987.98;1787931;79;21537;-58
2021/04/20 10:41:02;;;;;;;;;;;;;;;14.70;57.71;93989.48;1760833;81;20678;-58
2021/04/20 10:43:31;;;;;;;;;;;;;;;15.41;54.43;93992.63;1767625;79;20242;-58
2021/04/20 10:46:02;;;;;;;;;;;;;;;15.52;53.89;93994.81;1757750;79;20563;-59
2021/04/20 10:48:31;;;;;;;;;;;;;;;15.53;49.60;93999.75;1764581;79;20288;-59
2021/04/20 10:50:58;;;;;;;;;;;;;;;15.43;49.64;93988.11;1763522;79;21550;-60
2021/04/20 10:53:28;;;;;;;;;;;;;;;15.64;48.19;93988.08;1763818;79;20310;-60
2021/04/20 10:56:14;;;;;;;;;;;;;;;15.84;48.01;93989.91;1775240;80;20244;-60
2021/04/20 10:58:43;;;;;;;;;;;;;;;15.93;48.64;93994.61;1743049;80;20307;-59
2021/04/20 11:01:19;;;;;;;;;;;;;;;16.24;46.78;93996.48;1761414;80;20299;-60
2021/04/20 11:03:47;;;;;;;;;;;;;;;16.38;45.78;93992.12;1764773;80;21197;-60
2021/04/20 11:06:51;;;;;;;;;;;;;;;16.64;45.99;93978.14;1761428;80;20526;-60
2021/04/20 11:09:32;;;;;;;;;;;;;;;17.05;44.68;93985.30;1761274;80;20242;-59
2021/04/20 11:12:13;;;;;;;;;;;;;;;17.38;43.19;93981.89;1776895;80;20429;-58
2021/04/20 11:14:43;;;;;;;;;;;;;;;17.74;42.15;93985.56;1774417;80;20279;-61
2021/04/20 11:17:25;;;;;;;;;;;;;;;18.13;41.47;93982.09;1769688;80;21201;-60
2021/04/20 11:19:57;;;;;;;;;;;;;;;18.35;40.62;93976.45;1773044;80;20294;-59
2021/04/20 11:22:24;;;;;;;;;;;;;;;18.38;39.27;93966.30;1774782;80;20221;-60
2021/04/20 11:24:55;;;;;;;;;;;;;;;18.47;41.21;93958.38;1769529;80;20357;-62
2021/04/20 11:27:24;;;;;;;;;;;;;;;18.86;39.96;93951.13;1766884;80;20326;-58
2021/04/20 11:30:09;;;;;;;;;;;;;;;19.14;39.16;93954.42;1768118;80;21454;-61
2021/04/20 11:32:37;;;;;;;;;;;;;;;19.38;38.43;93948.25;1774693;80;21006;-61
2021/04/20 11:35:08;;;;;;;;;;;;;;;19.55;36.87;93940.46;1769691;80;20278;-62
2021/04/20 11:37:36;;;;;;;;;;;;;;;19.74;37.29;93938.46;1780997;80;20490;-60
2021/04/20 11:40:10;;;;;;;;;;;;;;;19.90;36.06;93938.16;1777885;80;20312;-62
2021/04/20 11:42:43;;;;;;;;;;;;;;;20.03;37.57;93933.45;1765660;80;21211;-62
2021/04/20 11:45:19;;;;;;;;;;;;;;;20.44;36.68;93943.03;1746816;80;20280;-63
2021/04/20 11:48:09;;;;;;;;;;;;;;;20.59;35.01;93934.17;1774108;80;20403;-61
2021/04/20 11:50:36;;;;;;;;;;;;;;;20.67;35.13;93931.63;1762166;80;20706;-62
2021/04/20 11:53:05;;;;;;;;;;;;;;;20.64;34.72;93920.74;1763404;80;20278;-65
2021/04/20 11:55:35;;;;;;;;;;;;;;;20.66;35.00;93916.14;1767946;80;22362;-64
2021/04/20 11:58:05;;;;;;;;;;;;;;;20.82;34.77;93919.31;1766352;80;20366;-61
2021/04/20 12:00:33;;;;;;;;;;;;;;;20.90;33.44;93918.08;1760861;80;20281;-63
2021/04/20 12:03:16;;;;;;;;;;;;;;;20.82;34.34;93912.95;1782193;80;20566;-63
2021/04/20 12:05:47;;;;;;;;;;;;;;;20.59;33.16;93913.20;1766294;80;20281;-62
2021/04/20 12:08:32;;;;;;;;;;;;;;;19.76;35.28;93913.56;1770869;80;21193;-66
2021/04/20 12:11:00;;;;;;;;;;;;;;;19.04;36.72;93909.39;1771011;80;20250;-59
2021/04/20 12:13:32;;;;;;;;;;;;;;;18.42;38.03;93913.22;1775463;80;20492;-60
2021/04/20 12:16:01;;;;;;;;;;;;;;;17.75;41.04;93903.61;1781778;80;20257;-60
2021/04/20 12:18:34;;;;;;;;;;;;;;;16.97;42.50;93923.18;1772731;80;20311;-58
2021/04/20 12:21:08;;;;;;;;;;;;;;;16.29;44.91;93921.53;1762478;80;21567;-60
2021/04/20 12:23:37;;;;;;;;;;;;;;;15.43;43.67;93916.04;1773904;80;20210;-62
2021/04/20 12:26:05;;;;;;;;;;;;;;;14.64;45.57;93916.68;1775417;80;20292;-60
2021/04/20 12:28:34;;;;;;;;;;;;;;;14.14;47.71;93924.43;1774081;80;20264;-64
2021/04/20 12:31:01;;;;;;;;;;;;;;;13.78;51.61;93927.84;1760973;80;20362;-59
2021/04/20 12:33:33;;;;;;;;;;;;;;;13.52;53.32;93922.92;1760697;80;21578;-59
2021/04/20 12:36:01;;;;;;;;;;;;;;;13.28;53.79;93921.63;1762085;80;20324;-57
2021/04/20 12:38:31;;;;;;;;;;;;;;;13.12;54.00;93908.38;1774181;80;20408;-62
2021/04/20 12:41:01;;;;;;;;;;;;;;;13.15;53.85;93917.06;1789303;78;20255;-72
2021/04/20 12:43:32;;;;;;;;;;;;;;;13.22;53.89;93915.26;1788241;78;20262;-61
2021/04/20 12:46:05;;;;;;;;;;;;;;;13.36;54.89;93915.81;1772111;79;21379;-60
2021/04/20 12:48:33;;;;;;;;;;;;;;;13.82;55.00;93920.73;1768145;80;20312;-61
2021/04/20 12:51:02;;;;;;;;;;;;;;;14.42;52.86;93914.40;1773937;80;20254;-65
2021/04/20 12:53:30;;;;;;;;;;;;;;;14.93;50.71;93919.15;1776127;80;20784;-61
2021/04/20 12:55:57;;;;;;;;;;;;;;;15.27;50.11;93916.69;1752535;80;20268;-62
2021/04/20 12:58:27;;;;;;;;;;;;;;;15.28;49.23;93917.44;1799538;78;21159;-57
2021/04/20 13:01:00;;;;;;;;;;;;;;;15.67;50.26;93914.98;1773319;78;20277;-62
2021/04/20 13:03:29;;;;;;;;;;;;;;;16.36;47.25;93915.52;1773906;78;21056;-64
2021/04/20 13:05:57;;;;;;;;;;;;;;;16.53;46.30;93914.25;1792289;78;20280;-65
2021/04/20 13:08:25;;;;;;;;;;;;;;;16.56;46.68;93909.72;1743783;80;20268;-65
2021/04/20 13:10:55;;;;;;;;;;;;;;;16.34;46.42;93912.47;1797588;78;21187;-61
2021/04/20 13:13:26;;;;;;;;;;;;;;;16.28;46.74;93904.75;1744577;80;20261;-63
2021/04/20 13:15:58;;;;;;;;;;;;;;;16.24;46.90;93909.05;1771090;79;20288;-63
2021/04/20 13:18:29;;;;;;;;;;;;;;;16.18;47.10;93903.49;1780762;78;20686;-64
2021/04/20 13:21:00;;;;;;;;;;;;;;;16.45;47.60;93902.77;1776888;80;20274;-59